sensor_id;sensor_type;location;lat;lon;timestamp;P1;durP1;ratioP1;P2;durP2;ratioP2
26375;SDS011;30544;42.196;24.336;2023-03-03T00:00:41;134.43;;;66.05;;
26375;SDS011;30544;42.196;24.336;2023-03-03T00:03:09;152.23;;;70.85;;
26375;SDS011;30544;42.196;24.336;2023-03-03T00:05:40;136.27;;;65.30;;
26375;SDS011;30544;42.196;24.336;2023-03-03T00:08:07;161.20;;;71.72;;
26375;SDS011;30544;42.196;24.336;2023-03-03T00:10:34;159.05;;;70.85;;
26375;SDS011;30544;42.196;24.336;2023-03-03T00:13:02;134.95;;;64.07;;
26375;SDS011;30544;42.196;24.336;2023-03-03T00:15:29;160.90;;;69.18;;
26375;SDS011;30544;42.196;24.336;2023-03-03T00:17:58;153.35;;;67.38;;
26375;SDS011;30544;42.196;24.336;2023-03-03T00:20:26;140.23;;;64.18;;
26375;SDS011;30544;42.196;24.336;2023-03-03T00:23:02;145.35;;;65.03;;
26375;SDS011;30544;42.196;24.336;2023-03-03T00:25:42;128.00;;;52.22;;
26375;SDS011;30544;42.196;24.336;2023-03-03T00:28:15;150.07;;;64.70;;
26375;SDS011;30544;42.196;24.336;2023-03-03T00:30:48;153.02;;;69.18;;
26375;SDS011;30544;42.196;24.336;2023-03-03T00:33:21;150.68;;;62.17;;
26375;SDS011;30544;42.196;24.336;2023-03-03T00:35:53;140.93;;;62.00;;
26375;SDS011;30544;42.196;24.336;2023-03-03T00:38:21;149.93;;;66.32;;
26375;SDS011;30544;42.196;24.336;2023-03-03T00:40:48;153.55;;;66.85;;
26375;SDS011;30544;42.196;24.336;2023-03-03T00:43:19;166.20;;;72.55;;
26375;SDS011;30544;42.196;24.336;2023-03-03T00:45:47;151.18;;;70.75;;
26375;SDS011;30544;42.196;24.336;2023-03-03T00:48:20;145.88;;;66.40;;
26375;SDS011;30544;42.196;24.336;2023-03-03T00:50:51;159.90;;;69.15;;
26375;SDS011;30544;42.196;24.336;2023-03-03T00:53:20;168.18;;;73.03;;
26375;SDS011;30544;42.196;24.336;2023-03-03T00:55:48;144.98;;;70.10;;
26375;SDS011;30544;42.196;24.336;2023-03-03T00:58:16;173.20;;;71.45;;
26375;SDS011;30544;42.196;24.336;2023-03-03T01:00:46;155.52;;;71.40;;
26375;SDS011;30544;42.196;24.336;2023-03-03T01:03:14;164.48;;;70.40;;
26375;SDS011;30544;42.196;24.336;2023-03-03T01:05:44;173.70;;;72.88;;
26375;SDS011;30544;42.196;24.336;2023-03-03T01:08:12;155.93;;;73.57;;
26375;SDS011;30544;42.196;24.336;2023-03-03T01:10:40;164.93;;;70.70;;
26375;SDS011;30544;42.196;24.336;2023-03-03T01:13:09;160.35;;;65.97;;
26375;SDS011;30544;42.196;24.336;2023-03-03T01:15:37;150.35;;;67.43;;
26375;SDS011;30544;42.196;24.336;2023-03-03T01:18:05;148.95;;;66.13;;
26375;SDS011;30544;42.196;24.336;2023-03-03T01:20:33;147.27;;;65.47;;
26375;SDS011;30544;42.196;24.336;2023-03-03T01:23:01;148.10;;;65.85;;
26375;SDS011;30544;42.196;24.336;2023-03-03T01:25:28;163.77;;;67.00;;
26375;SDS011;30544;42.196;24.336;2023-03-03T01:27:55;131.45;;;61.15;;
26375;SDS011;30544;42.196;24.336;2023-03-03T01:30:22;131.95;;;61.75;;
26375;SDS011;30544;42.196;24.336;2023-03-03T01:32:49;140.35;;;63.53;;
26375;SDS011;30544;42.196;24.336;2023-03-03T01:35:16;150.93;;;63.95;;
26375;SDS011;30544;42.196;24.336;2023-03-03T01:37:43;137.80;;;61.97;;
26375;SDS011;30544;42.196;24.336;2023-03-03T01:40:13;149.52;;;64.30;;
26375;SDS011;30544;42.196;24.336;2023-03-03T01:42:43;155.82;;;63.58;;
26375;SDS011;30544;42.196;24.336;2023-03-03T01:45:14;128.38;;;57.63;;
26375;SDS011;30544;42.196;24.336;2023-03-03T01:47:44;141.60;;;60.75;;
26375;SDS011;30544;42.196;24.336;2023-03-03T01:50:17;142.77;;;60.85;;
26375;SDS011;30544;42.196;24.336;2023-03-03T01:52:53;151.85;;;66.05;;
26375;SDS011;30544;42.196;24.336;2023-03-03T01:55:24;145.65;;;62.58;;
26375;SDS011;30544;42.196;24.336;2023-03-03T01:57:57;145.20;;;65.68;;
26375;SDS011;30544;42.196;24.336;2023-03-03T02:00:28;143.63;;;61.50;;
26375;SDS011;30544;42.196;24.336;2023-03-03T02:02:57;134.23;;;60.58;;
26375;SDS011;30544;42.196;24.336;2023-03-03T02:05:23;132.88;;;60.80;;
26375;SDS011;30544;42.196;24.336;2023-03-03T02:07:51;141.70;;;60.22;;
26375;SDS011;30544;42.196;24.336;2023-03-03T02:10:18;142.43;;;64.13;;
26375;SDS011;30544;42.196;24.336;2023-03-03T02:12:50;126.32;;;57.90;;
26375;SDS011;30544;42.196;24.336;2023-03-03T02:15:18;144.48;;;61.15;;
26375;SDS011;30544;42.196;24.336;2023-03-03T02:17:47;123.07;;;57.45;;
26375;SDS011;30544;42.196;24.336;2023-03-03T02:20:17;145.65;;;65.70;;
26375;SDS011;30544;42.196;24.336;2023-03-03T02:22:55;127.82;;;57.13;;
26375;SDS011;30544;42.196;24.336;2023-03-03T02:25:27;134.93;;;61.42;;
26375;SDS011;30544;42.196;24.336;2023-03-03T02:27:59;139.23;;;64.47;;
26375;SDS011;30544;42.196;24.336;2023-03-03T02:30:27;132.25;;;57.33;;
26375;SDS011;30544;42.196;24.336;2023-03-03T02:32:54;121.45;;;57.67;;
26375;SDS011;30544;42.196;24.336;2023-03-03T02:35:25;142.32;;;59.22;;
26375;SDS011;30544;42.196;24.336;2023-03-03T02:37:55;130.02;;;58.20;;
26375;SDS011;30544;42.196;24.336;2023-03-03T02:40:27;135.70;;;62.90;;
26375;SDS011;30544;42.196;24.336;2023-03-03T02:43:01;132.77;;;56.00;;
26375;SDS011;30544;42.196;24.336;2023-03-03T02:45:30;119.80;;;55.17;;
26375;SDS011;30544;42.196;24.336;2023-03-03T02:47:57;122.30;;;58.97;;
26375;SDS011;30544;42.196;24.336;2023-03-03T02:50:24;135.98;;;60.22;;
26375;SDS011;30544;42.196;24.336;2023-03-03T02:52:51;145.82;;;61.58;;
26375;SDS011;30544;42.196;24.336;2023-03-03T02:55:18;124.72;;;58.28;;
26375;SDS011;30544;42.196;24.336;2023-03-03T02:57:45;136.32;;;63.33;;
26375;SDS011;30544;42.196;24.336;2023-03-03T03:00:13;137.43;;;60.53;;
26375;SDS011;30544;42.196;24.336;2023-03-03T03:02:40;134.85;;;60.08;;
26375;SDS011;30544;42.196;24.336;2023-03-03T03:05:07;142.23;;;63.53;;
26375;SDS011;30544;42.196;24.336;2023-03-03T03:07:34;122.50;;;58.03;;
26375;SDS011;30544;42.196;24.336;2023-03-03T03:10:01;129.07;;;58.25;;
26375;SDS011;30544;42.196;24.336;2023-03-03T03:12:28;127.88;;;59.83;;
26375;SDS011;30544;42.196;24.336;2023-03-03T03:14:55;123.10;;;57.95;;
26375;SDS011;30544;42.196;24.336;2023-03-03T03:17:23;135.88;;;60.72;;
26375;SDS011;30544;42.196;24.336;2023-03-03T03:19:51;142.32;;;60.38;;
26375;SDS011;30544;42.196;24.336;2023-03-03T03:22:18;137.95;;;60.40;;
26375;SDS011;30544;42.196;24.336;2023-03-03T03:24:44;136.65;;;59.30;;
26375;SDS011;30544;42.196;24.336;2023-03-03T03:27:11;131.23;;;59.70;;
26375;SDS011;30544;42.196;24.336;2023-03-03T03:29:38;128.43;;;60.10;;
26375;SDS011;30544;42.196;24.336;2023-03-03T03:32:05;140.60;;;60.08;;
26375;SDS011;30544;42.196;24.336;2023-03-03T03:34:33;122.32;;;56.58;;
26375;SDS011;30544;42.196;24.336;2023-03-03T03:37:00;123.60;;;55.85;;
26375;SDS011;30544;42.196;24.336;2023-03-03T03:39:27;126.68;;;58.22;;
26375;SDS011;30544;42.196;24.336;2023-03-03T03:41:54;120.05;;;56.30;;
26375;SDS011;30544;42.196;24.336;2023-03-03T03:44:21;119.28;;;55.20;;
26375;SDS011;30544;42.196;24.336;2023-03-03T03:46:49;129.82;;;58.28;;
26375;SDS011;30544;42.196;24.336;2023-03-03T03:49:16;130.88;;;56.70;;
26375;SDS011;30544;42.196;24.336;2023-03-03T03:51:44;115.75;;;56.22;;
26375;SDS011;30544;42.196;24.336;2023-03-03T03:54:11;121.18;;;55.40;;
26375;SDS011;30544;42.196;24.336;2023-03-03T03:56:38;118.75;;;57.97;;
26375;SDS011;30544;42.196;24.336;2023-03-03T03:59:05;135.45;;;63.25;;
26375;SDS011;30544;42.196;24.336;2023-03-03T04:01:32;122.75;;;55.25;;
26375;SDS011;30544;42.196;24.336;2023-03-03T04:03:59;120.85;;;58.30;;
26375;SDS011;30544;42.196;24.336;2023-03-03T04:06:27;134.23;;;60.53;;
26375;SDS011;30544;42.196;24.336;2023-03-03T04:08:55;134.50;;;59.33;;
26375;SDS011;30544;42.196;24.336;2023-03-03T04:11:22;132.18;;;59.53;;
26375;SDS011;30544;42.196;24.336;2023-03-03T04:13:49;140.95;;;63.55;;
26375;SDS011;30544;42.196;24.336;2023-03-03T04:16:16;117.47;;;60.58;;
26375;SDS011;30544;42.196;24.336;2023-03-03T04:18:42;132.27;;;61.33;;
26375;SDS011;30544;42.196;24.336;2023-03-03T04:21:10;136.40;;;61.17;;
26375;SDS011;30544;42.196;24.336;2023-03-03T04:23:38;132.88;;;61.08;;
26375;SDS011;30544;42.196;24.336;2023-03-03T04:26:06;132.65;;;61.25;;
26375;SDS011;30544;42.196;24.336;2023-03-03T04:28:33;128.65;;;60.13;;
26375;SDS011;30544;42.196;24.336;2023-03-03T04:31:00;116.15;;;59.10;;
26375;SDS011;30544;42.196;24.336;2023-03-03T04:33:27;140.10;;;65.22;;
26375;SDS011;30544;42.196;24.336;2023-03-03T04:35:54;121.20;;;60.22;;
26375;SDS011;30544;42.196;24.336;2023-03-03T04:38:21;129.32;;;60.20;;
26375;SDS011;30544;42.196;24.336;2023-03-03T04:40:48;121.10;;;57.17;;
26375;SDS011;30544;42.196;24.336;2023-03-03T04:43:16;114.97;;;58.00;;
26375;SDS011;30544;42.196;24.336;2023-03-03T04:45:43;120.25;;;56.83;;
26375;SDS011;30544;42.196;24.336;2023-03-03T04:48:10;134.07;;;61.78;;
26375;SDS011;30544;42.196;24.336;2023-03-03T04:50:36;126.32;;;58.85;;
26375;SDS011;30544;42.196;24.336;2023-03-03T04:53:03;110.68;;;56.25;;
26375;SDS011;30544;42.196;24.336;2023-03-03T04:55:30;115.32;;;56.72;;
26375;SDS011;30544;42.196;24.336;2023-03-03T04:57:57;124.70;;;59.13;;
26375;SDS011;30544;42.196;24.336;2023-03-03T05:00:25;133.75;;;62.05;;
26375;SDS011;30544;42.196;24.336;2023-03-03T05:02:52;128.20;;;59.58;;
26375;SDS011;30544;42.196;24.336;2023-03-03T05:05:19;128.15;;;62.63;;
26375;SDS011;30544;42.196;24.336;2023-03-03T05:07:45;120.55;;;62.72;;
26375;SDS011;30544;42.196;24.336;2023-03-03T05:10:12;121.35;;;59.20;;
26375;SDS011;30544;42.196;24.336;2023-03-03T05:12:39;129.40;;;60.33;;
26375;SDS011;30544;42.196;24.336;2023-03-03T05:15:06;121.03;;;58.60;;
26375;SDS011;30544;42.196;24.336;2023-03-03T05:17:35;129.52;;;61.60;;
26375;SDS011;30544;42.196;24.336;2023-03-03T05:20:02;118.90;;;57.13;;
26375;SDS011;30544;42.196;24.336;2023-03-03T05:22:29;129.80;;;59.58;;
26375;SDS011;30544;42.196;24.336;2023-03-03T05:24:56;122.55;;;57.50;;
26375;SDS011;30544;42.196;24.336;2023-03-03T05:27:23;116.50;;;55.03;;
26375;SDS011;30544;42.196;24.336;2023-03-03T05:29:50;121.38;;;56.45;;
26375;SDS011;30544;42.196;24.336;2023-03-03T05:32:16;141.13;;;61.70;;
26375;SDS011;30544;42.196;24.336;2023-03-03T05:34:45;171.25;;;84.10;;
26375;SDS011;30544;42.196;24.336;2023-03-03T05:37:11;160.65;;;83.10;;
26375;SDS011;30544;42.196;24.336;2023-03-03T05:39:39;162.50;;;78.28;;
26375;SDS011;30544;42.196;24.336;2023-03-03T05:42:08;135.50;;;70.22;;
26375;SDS011;30544;42.196;24.336;2023-03-03T05:44:37;120.90;;;58.28;;
26375;SDS011;30544;42.196;24.336;2023-03-03T05:47:04;109.05;;;53.88;;
26375;SDS011;30544;42.196;24.336;2023-03-03T05:49:30;119.40;;;56.67;;
26375;SDS011;30544;42.196;24.336;2023-03-03T05:51:59;102.05;;;53.33;;
26375;SDS011;30544;42.196;24.336;2023-03-03T05:54:25;121.43;;;59.28;;
26375;SDS011;30544;42.196;24.336;2023-03-03T05:56:52;113.68;;;57.00;;
26375;SDS011;30544;42.196;24.336;2023-03-03T05:59:21;115.40;;;58.63;;
26375;SDS011;30544;42.196;24.336;2023-03-03T06:01:48;103.90;;;51.25;;
26375;SDS011;30544;42.196;24.336;2023-03-03T06:04:14;117.43;;;54.92;;
26375;SDS011;30544;42.196;24.336;2023-03-03T06:06:41;112.75;;;56.63;;
26375;SDS011;30544;42.196;24.336;2023-03-03T06:09:09;109.43;;;56.08;;
26375;SDS011;30544;42.196;24.336;2023-03-03T06:11:36;106.85;;;48.67;;
26375;SDS011;30544;42.196;24.336;2023-03-03T06:14:03;113.47;;;58.00;;
26375;SDS011;30544;42.196;24.336;2023-03-03T06:16:30;120.88;;;59.05;;
26375;SDS011;30544;42.196;24.336;2023-03-03T06:18:57;106.93;;;50.78;;
26375;SDS011;30544;42.196;24.336;2023-03-03T06:21:24;109.32;;;54.83;;
26375;SDS011;30544;42.196;24.336;2023-03-03T06:23:51;117.57;;;55.20;;
26375;SDS011;30544;42.196;24.336;2023-03-03T06:26:19;112.20;;;57.15;;
26375;SDS011;30544;42.196;24.336;2023-03-03T06:28:46;108.43;;;55.10;;
26375;SDS011;30544;42.196;24.336;2023-03-03T06:31:14;109.18;;;55.05;;
26375;SDS011;30544;42.196;24.336;2023-03-03T06:33:41;126.97;;;58.78;;
26375;SDS011;30544;42.196;24.336;2023-03-03T06:36:08;113.13;;;56.10;;
26375;SDS011;30544;42.196;24.336;2023-03-03T06:38:35;134.40;;;61.67;;
26375;SDS011;30544;42.196;24.336;2023-03-03T06:41:01;120.10;;;57.30;;
26375;SDS011;30544;42.196;24.336;2023-03-03T06:43:32;109.63;;;52.17;;
26375;SDS011;30544;42.196;24.336;2023-03-03T06:45:59;109.50;;;54.85;;
26375;SDS011;30544;42.196;24.336;2023-03-03T06:48:27;106.20;;;53.65;;
26375;SDS011;30544;42.196;24.336;2023-03-03T06:50:54;106.15;;;52.55;;
26375;SDS011;30544;42.196;24.336;2023-03-03T06:53:21;104.03;;;54.20;;
26375;SDS011;30544;42.196;24.336;2023-03-03T06:55:48;100.13;;;52.00;;
26375;SDS011;30544;42.196;24.336;2023-03-03T06:58:15;94.13;;;47.35;;
26375;SDS011;30544;42.196;24.336;2023-03-03T07:00:45;104.50;;;50.70;;
26375;SDS011;30544;42.196;24.336;2023-03-03T07:03:20;100.85;;;52.97;;
26375;SDS011;30544;42.196;24.336;2023-03-03T07:05:49;100.65;;;47.47;;
26375;SDS011;30544;42.196;24.336;2023-03-03T07:08:18;102.97;;;51.63;;
26375;SDS011;30544;42.196;24.336;2023-03-03T07:10:47;71.93;;;37.17;;
26375;SDS011;30544;42.196;24.336;2023-03-03T07:13:16;70.43;;;40.67;;
26375;SDS011;30544;42.196;24.336;2023-03-03T07:15:46;86.00;;;44.25;;
26375;SDS011;30544;42.196;24.336;2023-03-03T07:18:22;83.88;;;46.92;;
26375;SDS011;30544;42.196;24.336;2023-03-03T07:20:59;73.45;;;39.90;;
26375;SDS011;30544;42.196;24.336;2023-03-03T07:23:38;73.95;;;41.83;;
26375;SDS011;30544;42.196;24.336;2023-03-03T07:26:07;85.45;;;44.85;;
26375;SDS011;30544;42.196;24.336;2023-03-03T07:28:37;98.55;;;51.25;;
26375;SDS011;30544;42.196;24.336;2023-03-03T07:31:18;88.45;;;47.05;;
26375;SDS011;30544;42.196;24.336;2023-03-03T07:33:55;79.15;;;41.33;;
26375;SDS011;30544;42.196;24.336;2023-03-03T07:36:25;65.85;;;37.25;;
26375;SDS011;30544;42.196;24.336;2023-03-03T07:38:55;65.03;;;38.17;;
26375;SDS011;30544;42.196;24.336;2023-03-03T07:41:24;74.43;;;41.25;;
26375;SDS011;30544;42.196;24.336;2023-03-03T07:43:51;67.93;;;38.40;;
26375;SDS011;30544;42.196;24.336;2023-03-03T07:46:28;91.25;;;46.20;;
26375;SDS011;30544;42.196;24.336;2023-03-03T07:48:59;87.55;;;47.63;;
26375;SDS011;30544;42.196;24.336;2023-03-03T07:51:28;80.90;;;46.17;;
26375;SDS011;30544;42.196;24.336;2023-03-03T07:54:11;77.63;;;43.78;;
26375;SDS011;30544;42.196;24.336;2023-03-03T07:56:52;85.88;;;48.88;;
26375;SDS011;30544;42.196;24.336;2023-03-03T07:59:22;93.15;;;49.72;;
26375;SDS011;30544;42.196;24.336;2023-03-03T08:01:52;79.85;;;47.17;;
26375;SDS011;30544;42.196;24.336;2023-03-03T08:04:22;72.43;;;41.85;;
26375;SDS011;30544;42.196;24.336;2023-03-03T08:06:54;76.22;;;40.38;;
26375;SDS011;30544;42.196;24.336;2023-03-03T08:09:24;83.60;;;44.97;;
26375;SDS011;30544;42.196;24.336;2023-03-03T08:11:56;87.90;;;52.90;;
26375;SDS011;30544;42.196;24.336;2023-03-03T08:14:28;84.38;;;43.97;;
26375;SDS011;30544;42.196;24.336;2023-03-03T08:16:58;68.72;;;41.53;;
26375;SDS011;30544;42.196;24.336;2023-03-03T08:19:25;89.38;;;49.72;;
26375;SDS011;30544;42.196;24.336;2023-03-03T08:21:53;68.50;;;37.78;;
26375;SDS011;30544;42.196;24.336;2023-03-03T08:24:26;79.80;;;42.30;;
26375;SDS011;30544;42.196;24.336;2023-03-03T08:26:52;76.15;;;38.17;;
26375;SDS011;30544;42.196;24.336;2023-03-03T08:29:19;51.53;;;30.67;;
26375;SDS011;30544;42.196;24.336;2023-03-03T08:31:46;56.35;;;30.98;;
26375;SDS011;30544;42.196;24.336;2023-03-03T08:34:14;61.80;;;36.13;;
26375;SDS011;30544;42.196;24.336;2023-03-03T08:36:41;61.70;;;35.75;;
26375;SDS011;30544;42.196;24.336;2023-03-03T08:39:08;68.80;;;37.40;;
26375;SDS011;30544;42.196;24.336;2023-03-03T08:41:35;54.85;;;31.48;;
26375;SDS011;30544;42.196;24.336;2023-03-03T08:44:03;58.78;;;32.95;;
26375;SDS011;30544;42.196;24.336;2023-03-03T08:46:30;72.35;;;38.80;;
26375;SDS011;30544;42.196;24.336;2023-03-03T08:48:56;68.60;;;38.20;;
26375;SDS011;30544;42.196;24.336;2023-03-03T08:51:25;66.32;;;33.33;;
26375;SDS011;30544;42.196;24.336;2023-03-03T08:53:52;46.78;;;26.58;;
26375;SDS011;30544;42.196;24.336;2023-03-03T08:56:19;46.80;;;23.38;;
26375;SDS011;30544;42.196;24.336;2023-03-03T08:58:46;60.67;;;32.50;;
26375;SDS011;30544;42.196;24.336;2023-03-03T09:01:14;58.22;;;31.33;;
26375;SDS011;30544;42.196;24.336;2023-03-03T09:03:41;65.95;;;33.53;;
26375;SDS011;30544;42.196;24.336;2023-03-03T09:06:08;54.25;;;30.70;;
26375;SDS011;30544;42.196;24.336;2023-03-03T09:08:37;61.88;;;34.03;;
26375;SDS011;30544;42.196;24.336;2023-03-03T09:11:08;53.85;;;28.95;;
26375;SDS011;30544;42.196;24.336;2023-03-03T09:13:37;49.92;;;28.05;;
26375;SDS011;30544;42.196;24.336;2023-03-03T09:16:06;53.35;;;33.22;;
26375;SDS011;30544;42.196;24.336;2023-03-03T09:21:15;45.28;;;25.55;;
26375;SDS011;30544;42.196;24.336;2023-03-03T09:23:49;47.60;;;26.75;;
26375;SDS011;30544;42.196;24.336;2023-03-03T09:26:23;43.05;;;24.98;;
26375;SDS011;30544;42.196;24.336;2023-03-03T09:28:54;45.58;;;27.60;;
26375;SDS011;30544;42.196;24.336;2023-03-03T09:31:26;45.20;;;26.60;;
26375;SDS011;30544;42.196;24.336;2023-03-03T09:34:00;43.25;;;24.52;;
26375;SDS011;30544;42.196;24.336;2023-03-03T09:36:29;39.42;;;24.77;;
26375;SDS011;30544;42.196;24.336;2023-03-03T09:39:09;38.80;;;22.77;;
26375;SDS011;30544;42.196;24.336;2023-03-03T09:41:48;39.75;;;25.13;;
26375;SDS011;30544;42.196;24.336;2023-03-03T09:44:42;37.58;;;22.80;;
26375;SDS011;30544;42.196;24.336;2023-03-03T09:47:22;42.05;;;23.80;;
26375;SDS011;30544;42.196;24.336;2023-03-03T09:50:00;46.00;;;26.13;;
26375;SDS011;30544;42.196;24.336;2023-03-03T09:52:39;43.28;;;26.00;;
26375;SDS011;30544;42.196;24.336;2023-03-03T09:55:16;53.45;;;30.58;;
26375;SDS011;30544;42.196;24.336;2023-03-03T09:57:59;43.60;;;24.80;;
26375;SDS011;30544;42.196;24.336;2023-03-03T10:00:42;39.83;;;24.20;;
26375;SDS011;30544;42.196;24.336;2023-03-03T10:06:17;32.30;;;20.17;;
26375;SDS011;30544;42.196;24.336;2023-03-03T10:08:57;35.25;;;23.05;;
26375;SDS011;30544;42.196;24.336;2023-03-03T10:11:37;33.00;;;19.38;;
26375;SDS011;30544;42.196;24.336;2023-03-03T10:14:23;34.95;;;23.35;;
26375;SDS011;30544;42.196;24.336;2023-03-03T10:17:16;30.33;;;18.20;;
26375;SDS011;30544;42.196;24.336;2023-03-03T10:19:54;29.60;;;18.05;;
26375;SDS011;30544;42.196;24.336;2023-03-03T10:22:34;25.55;;;16.00;;
26375;SDS011;30544;42.196;24.336;2023-03-03T10:25:12;27.30;;;17.08;;
26375;SDS011;30544;42.196;24.336;2023-03-03T10:27:57;31.92;;;21.33;;
26375;SDS011;30544;42.196;24.336;2023-03-03T10:30:39;32.80;;;20.80;;
26375;SDS011;30544;42.196;24.336;2023-03-03T10:33:15;24.73;;;16.30;;
26375;SDS011;30544;42.196;24.336;2023-03-03T10:35:54;24.30;;;16.27;;
26375;SDS011;30544;42.196;24.336;2023-03-03T10:38:35;23.58;;;15.98;;
26375;SDS011;30544;42.196;24.336;2023-03-03T10:41:12;22.95;;;15.60;;
26375;SDS011;30544;42.196;24.336;2023-03-03T10:43:51;23.92;;;15.50;;
26375;SDS011;30544;42.196;24.336;2023-03-03T10:46:37;24.27;;;17.05;;
26375;SDS011;30544;42.196;24.336;2023-03-03T10:49:19;27.23;;;17.73;;
26375;SDS011;30544;42.196;24.336;2023-03-03T10:52:16;30.73;;;17.92;;
26375;SDS011;30544;42.196;24.336;2023-03-03T10:54:55;26.65;;;16.55;;
26375;SDS011;30544;42.196;24.336;2023-03-03T10:57:38;28.20;;;17.48;;
26375;SDS011;30544;42.196;24.336;2023-03-03T11:00:18;27.23;;;16.83;;
26375;SDS011;30544;42.196;24.336;2023-03-03T11:02:58;27.17;;;17.75;;
26375;SDS011;30544;42.196;24.336;2023-03-03T11:05:47;29.17;;;18.48;;
26375;SDS011;30544;42.196;24.336;2023-03-03T11:08:21;31.00;;;20.80;;
26375;SDS011;30544;42.196;24.336;2023-03-03T11:13:27;26.80;;;18.45;;
26375;SDS011;30544;42.196;24.336;2023-03-03T11:16:16;29.38;;;19.58;;
26375;SDS011;30544;42.196;24.336;2023-03-03T11:18:56;32.22;;;21.80;;
26375;SDS011;30544;42.196;24.336;2023-03-03T11:21:31;38.67;;;24.70;;
26375;SDS011;30544;42.196;24.336;2023-03-03T11:24:10;38.58;;;23.20;;
26375;SDS011;30544;42.196;24.336;2023-03-03T11:26:55;40.15;;;27.73;;
26375;SDS011;30544;42.196;24.336;2023-03-03T11:29:40;42.40;;;28.10;;
26375;SDS011;30544;42.196;24.336;2023-03-03T11:32:21;41.58;;;26.33;;
26375;SDS011;30544;42.196;24.336;2023-03-03T11:35:01;37.85;;;25.65;;
26375;SDS011;30544;42.196;24.336;2023-03-03T11:37:43;35.30;;;24.80;;
26375;SDS011;30544;42.196;24.336;2023-03-03T11:40:18;35.47;;;24.85;;
26375;SDS011;30544;42.196;24.336;2023-03-03T11:42:53;90.53;;;42.90;;
26375;SDS011;30544;42.196;24.336;2023-03-03T11:45:28;36.67;;;25.63;;
26375;SDS011;30544;42.196;24.336;2023-03-03T11:48:04;44.30;;;28.00;;
26375;SDS011;30544;42.196;24.336;2023-03-03T11:50:40;39.63;;;27.00;;
26375;SDS011;30544;42.196;24.336;2023-03-03T11:53:17;36.25;;;25.15;;
26375;SDS011;30544;42.196;24.336;2023-03-03T11:55:53;38.55;;;24.98;;
26375;SDS011;30544;42.196;24.336;2023-03-03T11:58:26;28.15;;;20.92;;
26375;SDS011;30544;42.196;24.336;2023-03-03T12:00:58;33.65;;;22.70;;
26375;SDS011;30544;42.196;24.336;2023-03-03T12:03:30;39.05;;;24.65;;
26375;SDS011;30544;42.196;24.336;2023-03-03T12:11:56;29.88;;;21.52;;
26375;SDS011;30544;42.196;24.336;2023-03-03T12:14:45;29.70;;;20.60;;
26375;SDS011;30544;42.196;24.336;2023-03-03T12:17:32;35.45;;;22.85;;
26375;SDS011;30544;42.196;24.336;2023-03-03T12:20:14;37.67;;;25.67;;
26375;SDS011;30544;42.196;24.336;2023-03-03T12:22:47;40.22;;;26.85;;
26375;SDS011;30544;42.196;24.336;2023-03-03T12:25:23;34.53;;;23.35;;
26375;SDS011;30544;42.196;24.336;2023-03-03T12:27:58;42.28;;;25.08;;
26375;SDS011;30544;42.196;24.336;2023-03-03T12:30:40;37.00;;;24.77;;
26375;SDS011;30544;42.196;24.336;2023-03-03T12:33:21;41.80;;;29.88;;
26375;SDS011;30544;42.196;24.336;2023-03-03T12:36:00;41.53;;;26.25;;
26375;SDS011;30544;42.196;24.336;2023-03-03T12:38:37;38.67;;;25.77;;
26375;SDS011;30544;42.196;24.336;2023-03-03T12:41:14;29.90;;;21.95;;
26375;SDS011;30544;42.196;24.336;2023-03-03T12:43:51;33.35;;;24.25;;
26375;SDS011;30544;42.196;24.336;2023-03-03T12:46:26;31.70;;;23.30;;
26375;SDS011;30544;42.196;24.336;2023-03-03T12:49:01;29.05;;;21.25;;
26375;SDS011;30544;42.196;24.336;2023-03-03T12:51:35;30.38;;;21.73;;
26375;SDS011;30544;42.196;24.336;2023-03-03T12:54:27;33.13;;;23.83;;
26375;SDS011;30544;42.196;24.336;2023-03-03T12:57:07;24.95;;;18.40;;
26375;SDS011;30544;42.196;24.336;2023-03-03T12:59:44;25.65;;;19.05;;
26375;SDS011;30544;42.196;24.336;2023-03-03T13:02:34;29.25;;;19.98;;
26375;SDS011;30544;42.196;24.336;2023-03-03T13:05:10;31.73;;;22.38;;
26375;SDS011;30544;42.196;24.336;2023-03-03T13:07:49;33.33;;;20.55;;
26375;SDS011;30544;42.196;24.336;2023-03-03T13:10:32;32.70;;;23.58;;
26375;SDS011;30544;42.196;24.336;2023-03-03T13:13:05;34.83;;;22.80;;
26375;SDS011;30544;42.196;24.336;2023-03-03T13:15:38;34.47;;;22.88;;
26375;SDS011;30544;42.196;24.336;2023-03-03T13:18:15;30.55;;;23.60;;
26375;SDS011;30544;42.196;24.336;2023-03-03T13:20:53;31.23;;;22.63;;
26375;SDS011;30544;42.196;24.336;2023-03-03T13:23:30;37.65;;;25.48;;
26375;SDS011;30544;42.196;24.336;2023-03-03T13:26:08;52.78;;;33.97;;
26375;SDS011;30544;42.196;24.336;2023-03-03T13:28:45;44.05;;;28.55;;
26375;SDS011;30544;42.196;24.336;2023-03-03T13:31:25;46.83;;;30.27;;
26375;SDS011;30544;42.196;24.336;2023-03-03T13:33:57;52.77;;;30.53;;
26375;SDS011;30544;42.196;24.336;2023-03-03T13:36:27;35.90;;;23.23;;
26375;SDS011;30544;42.196;24.336;2023-03-03T13:39:02;31.77;;;23.40;;
26375;SDS011;30544;42.196;24.336;2023-03-03T13:41:39;32.80;;;22.80;;
26375;SDS011;30544;42.196;24.336;2023-03-03T13:44:14;29.17;;;21.90;;
26375;SDS011;30544;42.196;24.336;2023-03-03T13:46:47;37.55;;;24.25;;
26375;SDS011;30544;42.196;24.336;2023-03-03T13:49:30;37.35;;;24.25;;
26375;SDS011;30544;42.196;24.336;2023-03-03T13:52:20;34.40;;;21.30;;
26375;SDS011;30544;42.196;24.336;2023-03-03T13:57:52;36.08;;;24.42;;
26375;SDS011;30544;42.196;24.336;2023-03-03T14:00:33;34.90;;;25.10;;
26375;SDS011;30544;42.196;24.336;2023-03-03T14:03:12;38.53;;;22.73;;
26375;SDS011;30544;42.196;24.336;2023-03-03T14:05:47;28.20;;;20.65;;
26375;SDS011;30544;42.196;24.336;2023-03-03T14:08:18;31.00;;;22.08;;
26375;SDS011;30544;42.196;24.336;2023-03-03T14:11:09;34.72;;;24.08;;
26375;SDS011;30544;42.196;24.336;2023-03-03T14:13:43;37.45;;;23.30;;
26375;SDS011;30544;42.196;24.336;2023-03-03T14:16:32;44.38;;;32.38;;
26375;SDS011;30544;42.196;24.336;2023-03-03T14:19:09;24.98;;;18.25;;
26375;SDS011;30544;42.196;24.336;2023-03-03T14:24:14;28.50;;;20.38;;
26375;SDS011;30544;42.196;24.336;2023-03-03T14:26:46;32.22;;;23.05;;
26375;SDS011;30544;42.196;24.336;2023-03-03T14:29:21;39.78;;;28.00;;
26375;SDS011;30544;42.196;24.336;2023-03-03T14:31:56;39.97;;;28.02;;
26375;SDS011;30544;42.196;24.336;2023-03-03T14:34:29;33.10;;;23.67;;
26375;SDS011;30544;42.196;24.336;2023-03-03T14:37:18;30.95;;;23.35;;
26375;SDS011;30544;42.196;24.336;2023-03-03T14:39:49;31.27;;;24.23;;
26375;SDS011;30544;42.196;24.336;2023-03-03T14:42:30;33.72;;;25.67;;
26375;SDS011;30544;42.196;24.336;2023-03-03T14:45:04;55.78;;;37.15;;
26375;SDS011;30544;42.196;24.336;2023-03-03T14:47:46;35.20;;;24.63;;
26375;SDS011;30544;42.196;24.336;2023-03-03T14:50:30;35.33;;;23.48;;